sensor_id;sensor_type;location;lat;lon;timestamp;P1;durP1;ratioP1;P2;durP2;ratioP2
7154;SDS011;3619;53.784;10.440;2023-02-12T00:00:22;8.50;;;8.20;;
7154;SDS011;3619;53.784;10.440;2023-02-12T00:02:49;9.63;;;9.27;;
7154;SDS011;3619;53.784;10.440;2023-02-12T00:05:16;8.20;;;7.90;;
7154;SDS011;3619;53.784;10.440;2023-02-12T00:07:43;8.73;;;8.43;;
7154;SDS011;3619;53.784;10.440;2023-02-12T00:10:10;9.23;;;8.93;;
7154;SDS011;3619;53.784;10.440;2023-02-12T00:12:37;8.30;;;8.00;;
7154;SDS011;3619;53.784;10.440;2023-02-12T00:15:06;9.93;;;9.53;;
7154;SDS011;3619;53.784;10.440;2023-02-12T00:17:33;8.90;;;8.60;;
7154;SDS011;3619;53.784;10.440;2023-02-12T00:20:00;8.47;;;8.17;;
7154;SDS011;3619;53.784;10.440;2023-02-12T00:22:27;8.30;;;8.00;;
7154;SDS011;3619;53.784;10.440;2023-02-12T00:24:54;7.73;;;7.43;;
7154;SDS011;3619;53.784;10.440;2023-02-12T00:27:21;8.00;;;7.70;;
7154;SDS011;3619;53.784;10.440;2023-02-12T00:29:48;7.80;;;7.50;;
7154;SDS011;3619;53.784;10.440;2023-02-12T00:32:19;8.33;;;8.03;;
7154;SDS011;3619;53.784;10.440;2023-02-12T00:34:46;7.97;;;7.67;;
7154;SDS011;3619;53.784;10.440;2023-02-12T00:37:13;7.17;;;6.87;;
7154;SDS011;3619;53.784;10.440;2023-02-12T00:39:40;7.53;;;7.23;;
7154;SDS011;3619;53.784;10.440;2023-02-12T00:42:07;7.87;;;7.57;;
7154;SDS011;3619;53.784;10.440;2023-02-12T00:44:34;7.30;;;7.00;;
7154;SDS011;3619;53.784;10.440;2023-02-12T00:47:01;7.67;;;7.37;;
7154;SDS011;3619;53.784;10.440;2023-02-12T00:49:30;7.23;;;6.93;;
7154;SDS011;3619;53.784;10.440;2023-02-12T00:51:58;7.33;;;7.03;;
7154;SDS011;3619;53.784;10.440;2023-02-12T00:54:26;7.07;;;6.80;;
7154;SDS011;3619;53.784;10.440;2023-02-12T00:56:52;7.03;;;6.77;;
7154;SDS011;3619;53.784;10.440;2023-02-12T00:59:22;7.53;;;7.23;;
7154;SDS011;3619;53.784;10.440;2023-02-12T01:01:49;7.40;;;7.10;;
7154;SDS011;3619;53.784;10.440;2023-02-12T01:04:17;7.70;;;7.40;;
7154;SDS011;3619;53.784;10.440;2023-02-12T01:06:45;6.47;;;6.27;;
7154;SDS011;3619;53.784;10.440;2023-02-12T01:09:14;6.43;;;6.23;;
7154;SDS011;3619;53.784;10.440;2023-02-12T01:11:40;6.87;;;6.67;;
7154;SDS011;3619;53.784;10.440;2023-02-12T01:14:07;6.37;;;6.17;;
7154;SDS011;3619;53.784;10.440;2023-02-12T01:16:34;7.70;;;7.40;;
7154;SDS011;3619;53.784;10.440;2023-02-12T01:19:02;7.43;;;7.13;;
7154;SDS011;3619;53.784;10.440;2023-02-12T01:21:30;10.70;;;10.00;;
7154;SDS011;3619;53.784;10.440;2023-02-12T01:24:00;6.47;;;6.27;;
7154;SDS011;3619;53.784;10.440;2023-02-12T01:26:28;6.17;;;5.97;;
7154;SDS011;3619;53.784;10.440;2023-02-12T01:28:57;6.27;;;6.07;;
7154;SDS011;3619;53.784;10.440;2023-02-12T01:31:26;6.27;;;6.07;;
7154;SDS011;3619;53.784;10.440;2023-02-12T01:33:55;5.47;;;5.27;;
7154;SDS011;3619;53.784;10.440;2023-02-12T01:36:26;4.90;;;4.70;;
7154;SDS011;3619;53.784;10.440;2023-02-12T01:38:53;5.50;;;5.30;;
7154;SDS011;3619;53.784;10.440;2023-02-12T01:41:24;4.77;;;4.57;;
7154;SDS011;3619;53.784;10.440;2023-02-12T01:44:08;4.67;;;4.47;;
7154;SDS011;3619;53.784;10.440;2023-02-12T01:46:37;4.40;;;4.27;;
7154;SDS011;3619;53.784;10.440;2023-02-12T01:49:06;4.13;;;4.03;;
7154;SDS011;3619;53.784;10.440;2023-02-12T01:51:36;4.20;;;4.10;;
7154;SDS011;3619;53.784;10.440;2023-02-12T01:54:05;4.73;;;4.53;;
7154;SDS011;3619;53.784;10.440;2023-02-12T01:56:36;4.17;;;4.07;;
7154;SDS011;3619;53.784;10.440;2023-02-12T01:59:07;4.83;;;4.63;;
7154;SDS011;3619;53.784;10.440;2023-02-12T02:01:34;4.53;;;4.33;;
7154;SDS011;3619;53.784;10.440;2023-02-12T02:04:01;4.13;;;4.03;;
7154;SDS011;3619;53.784;10.440;2023-02-12T02:06:37;4.73;;;4.53;;
7154;SDS011;3619;53.784;10.440;2023-02-12T02:09:10;4.07;;;3.97;;
7154;SDS011;3619;53.784;10.440;2023-02-12T02:11:39;4.07;;;3.97;;
7154;SDS011;3619;53.784;10.440;2023-02-12T02:14:23;3.83;;;3.73;;
7154;SDS011;3619;53.784;10.440;2023-02-12T02:17:13;4.30;;;4.20;;
7154;SDS011;3619;53.784;10.440;2023-02-12T02:20:09;4.30;;;4.20;;
7154;SDS011;3619;53.784;10.440;2023-02-12T02:22:47;4.03;;;3.93;;
7154;SDS011;3619;53.784;10.440;2023-02-12T02:25:43;4.47;;;4.30;;
7154;SDS011;3619;53.784;10.440;2023-02-12T02:28:43;4.43;;;4.27;;
7154;SDS011;3619;53.784;10.440;2023-02-12T02:31:25;4.23;;;4.13;;
7154;SDS011;3619;53.784;10.440;2023-02-12T02:33:58;4.87;;;4.67;;
7154;SDS011;3619;53.784;10.440;2023-02-12T02:36:36;5.00;;;4.80;;
7154;SDS011;3619;53.784;10.440;2023-02-12T02:39:12;6.00;;;5.80;;
7154;SDS011;3619;53.784;10.440;2023-02-12T02:41:45;5.33;;;5.13;;
7154;SDS011;3619;53.784;10.440;2023-02-12T02:44:16;5.70;;;5.50;;
7154;SDS011;3619;53.784;10.440;2023-02-12T02:46:50;5.00;;;4.80;;
7154;SDS011;3619;53.784;10.440;2023-02-12T02:49:20;5.33;;;5.13;;
7154;SDS011;3619;53.784;10.440;2023-02-12T02:51:50;5.47;;;5.27;;
7154;SDS011;3619;53.784;10.440;2023-02-12T02:54:22;5.50;;;5.30;;
7154;SDS011;3619;53.784;10.440;2023-02-12T02:56:55;4.43;;;4.27;;
7154;SDS011;3619;53.784;10.440;2023-02-12T02:59:27;5.17;;;4.97;;
7154;SDS011;3619;53.784;10.440;2023-02-12T03:02:00;4.80;;;4.60;;
7154;SDS011;3619;53.784;10.440;2023-02-12T03:04:32;5.17;;;4.97;;
7154;SDS011;3619;53.784;10.440;2023-02-12T03:07:03;5.60;;;5.40;;
7154;SDS011;3619;53.784;10.440;2023-02-12T03:09:36;6.07;;;5.87;;
7154;SDS011;3619;53.784;10.440;2023-02-12T03:12:07;5.27;;;5.07;;
7154;SDS011;3619;53.784;10.440;2023-02-12T03:14:39;6.10;;;5.90;;
7154;SDS011;3619;53.784;10.440;2023-02-12T03:17:13;7.13;;;6.83;;
7154;SDS011;3619;53.784;10.440;2023-02-12T03:19:46;6.53;;;6.33;;
7154;SDS011;3619;53.784;10.440;2023-02-12T03:22:18;6.80;;;6.60;;
7154;SDS011;3619;53.784;10.440;2023-02-12T03:24:49;6.27;;;6.07;;
7154;SDS011;3619;53.784;10.440;2023-02-12T03:27:19;6.23;;;6.03;;
7154;SDS011;3619;53.784;10.440;2023-02-12T03:29:51;6.17;;;5.97;;
7154;SDS011;3619;53.784;10.440;2023-02-12T03:32:23;5.70;;;5.50;;
7154;SDS011;3619;53.784;10.440;2023-02-12T03:35:01;6.63;;;6.43;;
7154;SDS011;3619;53.784;10.440;2023-02-12T03:37:39;7.23;;;6.93;;
7154;SDS011;3619;53.784;10.440;2023-02-12T03:40:13;6.60;;;6.40;;
7154;SDS011;3619;53.784;10.440;2023-02-12T03:42:44;7.90;;;7.60;;
7154;SDS011;3619;53.784;10.440;2023-02-12T03:45:18;7.13;;;6.83;;
7154;SDS011;3619;53.784;10.440;2023-02-12T03:47:56;7.73;;;7.43;;
7154;SDS011;3619;53.784;10.440;2023-02-12T03:50:32;7.87;;;7.57;;
7154;SDS011;3619;53.784;10.440;2023-02-12T03:53:04;6.50;;;6.30;;
7154;SDS011;3619;53.784;10.440;2023-02-12T03:55:32;7.70;;;7.40;;
7154;SDS011;3619;53.784;10.440;2023-02-12T03:58:03;6.83;;;6.63;;
7154;SDS011;3619;53.784;10.440;2023-02-12T04:00:35;7.03;;;6.77;;
7154;SDS011;3619;53.784;10.440;2023-02-12T04:03:05;7.27;;;6.97;;
7154;SDS011;3619;53.784;10.440;2023-02-12T04:05:33;7.47;;;7.17;;
7154;SDS011;3619;53.784;10.440;2023-02-12T04:07:59;8.07;;;7.77;;
7154;SDS011;3619;53.784;10.440;2023-02-12T04:10:31;8.53;;;8.23;;
7154;SDS011;3619;53.784;10.440;2023-02-12T04:13:06;8.73;;;8.43;;
7154;SDS011;3619;53.784;10.440;2023-02-12T04:15:42;8.40;;;8.10;;
7154;SDS011;3619;53.784;10.440;2023-02-12T04:18:23;8.07;;;7.77;;
7154;SDS011;3619;53.784;10.440;2023-02-12T04:20:56;7.83;;;7.53;;
7154;SDS011;3619;53.784;10.440;2023-02-12T04:26:25;7.63;;;7.33;;
7154;SDS011;3619;53.784;10.440;2023-02-12T04:29:04;8.80;;;8.50;;
7154;SDS011;3619;53.784;10.440;2023-02-12T04:31:42;8.67;;;8.37;;
7154;SDS011;3619;53.784;10.440;2023-02-12T04:34:14;8.73;;;8.43;;
7154;SDS011;3619;53.784;10.440;2023-02-12T04:36:45;8.47;;;8.17;;
7154;SDS011;3619;53.784;10.440;2023-02-12T04:39:19;8.87;;;8.57;;
7154;SDS011;3619;53.784;10.440;2023-02-12T04:41:49;9.93;;;9.53;;
7154;SDS011;3619;53.784;10.440;2023-02-12T04:44:17;8.53;;;8.23;;
7154;SDS011;3619;53.784;10.440;2023-02-12T04:46:48;9.73;;;9.33;;
7154;SDS011;3619;53.784;10.440;2023-02-12T04:49:18;9.77;;;9.37;;
7154;SDS011;3619;53.784;10.440;2023-02-12T04:51:47;9.33;;;9.03;;
7154;SDS011;3619;53.784;10.440;2023-02-12T04:54:14;8.73;;;8.43;;
7154;SDS011;3619;53.784;10.440;2023-02-12T04:56:43;9.10;;;8.80;;
7154;SDS011;3619;53.784;10.440;2023-02-12T04:59:11;10.73;;;10.33;;
7154;SDS011;3619;53.784;10.440;2023-02-12T05:01:39;10.47;;;10.07;;
7154;SDS011;3619;53.784;10.440;2023-02-12T05:04:07;10.43;;;10.03;;
7154;SDS011;3619;53.784;10.440;2023-02-12T05:06:37;9.77;;;9.37;;
7154;SDS011;3619;53.784;10.440;2023-02-12T05:09:05;10.73;;;10.33;;
7154;SDS011;3619;53.784;10.440;2023-02-12T05:11:33;10.63;;;10.23;;
7154;SDS011;3619;53.784;10.440;2023-02-12T05:14:00;9.90;;;9.50;;
7154;SDS011;3619;53.784;10.440;2023-02-12T05:16:27;10.93;;;10.53;;
7154;SDS011;3619;53.784;10.440;2023-02-12T05:18:55;11.00;;;10.60;;
7154;SDS011;3619;53.784;10.440;2023-02-12T05:21:22;11.70;;;11.30;;
7154;SDS011;3619;53.784;10.440;2023-02-12T05:23:50;11.17;;;10.77;;
7154;SDS011;3619;53.784;10.440;2023-02-12T05:26:20;11.10;;;10.70;;
7154;SDS011;3619;53.784;10.440;2023-02-12T05:28:47;12.67;;;12.17;;
7154;SDS011;3619;53.784;10.440;2023-02-12T05:31:15;11.87;;;11.47;;
7154;SDS011;3619;53.784;10.440;2023-02-12T05:33:43;12.20;;;11.73;;
7154;SDS011;3619;53.784;10.440;2023-02-12T05:36:13;10.87;;;10.47;;
7154;SDS011;3619;53.784;10.440;2023-02-12T05:38:41;11.67;;;11.27;;
7154;SDS011;3619;53.784;10.440;2023-02-12T05:41:13;14.27;;;13.77;;
7154;SDS011;3619;53.784;10.440;2023-02-12T05:43:40;14.23;;;13.73;;
7154;SDS011;3619;53.784;10.440;2023-02-12T05:46:08;12.47;;;11.97;;
7154;SDS011;3619;53.784;10.440;2023-02-12T05:48:35;16.77;;;16.17;;
7154;SDS011;3619;53.784;10.440;2023-02-12T05:51:03;15.30;;;14.70;;
7154;SDS011;3619;53.784;10.440;2023-02-12T05:53:31;15.20;;;14.60;;
7154;SDS011;3619;53.784;10.440;2023-02-12T05:56:09;19.23;;;18.53;;
7154;SDS011;3619;53.784;10.440;2023-02-12T05:58:39;16.47;;;15.87;;
7154;SDS011;3619;53.784;10.440;2023-02-12T06:01:08;17.17;;;16.57;;
7154;SDS011;3619;53.784;10.440;2023-02-12T06:03:36;19.83;;;19.10;;
7154;SDS011;3619;53.784;10.440;2023-02-12T06:06:04;18.77;;;18.07;;
7154;SDS011;3619;53.784;10.440;2023-02-12T06:08:31;18.40;;;17.70;;
7154;SDS011;3619;53.784;10.440;2023-02-12T06:10:58;17.10;;;16.50;;
7154;SDS011;3619;53.784;10.440;2023-02-12T06:13:27;16.37;;;15.77;;
7154;SDS011;3619;53.784;10.440;2023-02-12T06:15:55;16.80;;;16.20;;
7154;SDS011;3619;53.784;10.440;2023-02-12T06:18:26;18.93;;;18.23;;
7154;SDS011;3619;53.784;10.440;2023-02-12T06:20:53;18.00;;;17.30;;
7154;SDS011;3619;53.784;10.440;2023-02-12T06:23:20;19.07;;;18.37;;
7154;SDS011;3619;53.784;10.440;2023-02-12T06:25:48;19.27;;;18.57;;
7154;SDS011;3619;53.784;10.440;2023-02-12T06:28:17;17.13;;;16.53;;
7154;SDS011;3619;53.784;10.440;2023-02-12T06:30:44;19.23;;;18.53;;
7154;SDS011;3619;53.784;10.440;2023-02-12T06:33:14;19.47;;;18.77;;
7154;SDS011;3619;53.784;10.440;2023-02-12T06:35:41;19.03;;;18.33;;
7154;SDS011;3619;53.784;10.440;2023-02-12T06:38:08;17.57;;;16.87;;
7154;SDS011;3619;53.784;10.440;2023-02-12T06:40:41;18.57;;;17.87;;
7154;SDS011;3619;53.784;10.440;2023-02-12T06:43:08;17.70;;;17.00;;
7154;SDS011;3619;53.784;10.440;2023-02-12T06:45:37;17.40;;;16.73;;
7154;SDS011;3619;53.784;10.440;2023-02-12T06:48:04;16.10;;;15.50;;
7154;SDS011;3619;53.784;10.440;2023-02-12T06:50:33;19.20;;;18.50;;
7154;SDS011;3619;53.784;10.440;2023-02-12T06:52:59;16.23;;;15.63;;
7154;SDS011;3619;53.784;10.440;2023-02-12T06:55:26;16.13;;;15.53;;
7154;SDS011;3619;53.784;10.440;2023-02-12T06:57:54;14.33;;;13.83;;
7154;SDS011;3619;53.784;10.440;2023-02-12T07:00:21;14.73;;;14.20;;
7154;SDS011;3619;53.784;10.440;2023-02-12T07:02:52;13.87;;;13.37;;
7154;SDS011;3619;53.784;10.440;2023-02-12T07:05:21;15.90;;;15.30;;
7154;SDS011;3619;53.784;10.440;2023-02-12T07:07:52;15.67;;;15.07;;
7154;SDS011;3619;53.784;10.440;2023-02-12T07:10:29;15.80;;;15.20;;
7154;SDS011;3619;53.784;10.440;2023-02-12T07:12:56;16.63;;;16.03;;
7154;SDS011;3619;53.784;10.440;2023-02-12T07:15:24;14.07;;;13.57;;
7154;SDS011;3619;53.784;10.440;2023-02-12T07:17:54;12.70;;;12.20;;
7154;SDS011;3619;53.784;10.440;2023-02-12T07:20:20;15.10;;;14.50;;
7154;SDS011;3619;53.784;10.440;2023-02-12T07:22:50;13.90;;;13.40;;
7154;SDS011;3619;53.784;10.440;2023-02-12T07:25:16;12.97;;;12.47;;
7154;SDS011;3619;53.784;10.440;2023-02-12T07:27:43;13.27;;;12.77;;
7154;SDS011;3619;53.784;10.440;2023-02-12T07:30:10;13.10;;;12.60;;
7154;SDS011;3619;53.784;10.440;2023-02-12T07:32:40;13.13;;;12.63;;
7154;SDS011;3619;53.784;10.440;2023-02-12T07:35:07;14.10;;;13.60;;
7154;SDS011;3619;53.784;10.440;2023-02-12T07:37:34;14.33;;;13.83;;
7154;SDS011;3619;53.784;10.440;2023-02-12T07:40:02;13.67;;;13.17;;
7154;SDS011;3619;53.784;10.440;2023-02-12T07:42:30;15.03;;;14.43;;
7154;SDS011;3619;53.784;10.440;2023-02-12T07:44:58;13.90;;;13.40;;
7154;SDS011;3619;53.784;10.440;2023-02-12T07:47:25;13.70;;;13.20;;
7154;SDS011;3619;53.784;10.440;2023-02-12T07:49:52;15.07;;;14.47;;
7154;SDS011;3619;53.784;10.440;2023-02-12T07:52:19;14.43;;;13.93;;
7154;SDS011;3619;53.784;10.440;2023-02-12T07:54:46;13.33;;;12.83;;
7154;SDS011;3619;53.784;10.440;2023-02-12T07:57:16;14.30;;;13.80;;
7154;SDS011;3619;53.784;10.440;2023-02-12T07:59:42;15.90;;;15.30;;
7154;SDS011;3619;53.784;10.440;2023-02-12T08:02:11;14.53;;;14.03;;
7154;SDS011;3619;53.784;10.440;2023-02-12T08:04:37;13.97;;;13.47;;
7154;SDS011;3619;53.784;10.440;2023-02-12T08:07:04;12.87;;;12.37;;
7154;SDS011;3619;53.784;10.440;2023-02-12T08:09:31;12.50;;;12.00;;
7154;SDS011;3619;53.784;10.440;2023-02-12T08:11:58;12.53;;;12.03;;
7154;SDS011;3619;53.784;10.440;2023-02-12T08:14:26;11.40;;;11.00;;
7154;SDS011;3619;53.784;10.440;2023-02-12T08:16:53;11.97;;;11.57;;
7154;SDS011;3619;53.784;10.440;2023-02-12T08:19:20;11.20;;;10.80;;
7154;SDS011;3619;53.784;10.440;2023-02-12T08:21:48;13.17;;;12.67;;
7154;SDS011;3619;53.784;10.440;2023-02-12T08:24:15;14.10;;;13.60;;
7154;SDS011;3619;53.784;10.440;2023-02-12T08:26:42;13.43;;;12.93;;
7154;SDS011;3619;53.784;10.440;2023-02-12T08:29:10;14.70;;;14.17;;
7154;SDS011;3619;53.784;10.440;2023-02-12T08:31:41;15.23;;;14.63;;
7154;SDS011;3619;53.784;10.440;2023-02-12T08:34:14;14.97;;;14.37;;
7154;SDS011;3619;53.784;10.440;2023-02-12T08:36:42;15.30;;;14.70;;
7154;SDS011;3619;53.784;10.440;2023-02-12T08:39:10;16.03;;;15.43;;
7154;SDS011;3619;53.784;10.440;2023-02-12T08:41:37;15.00;;;14.40;;
7154;SDS011;3619;53.784;10.440;2023-02-12T08:44:06;13.80;;;13.30;;
7154;SDS011;3619;53.784;10.440;2023-02-12T08:46:35;13.23;;;12.73;;
7154;SDS011;3619;53.784;10.440;2023-02-12T08:49:10;13.57;;;13.07;;
7154;SDS011;3619;53.784;10.440;2023-02-12T08:51:38;14.33;;;13.83;;
7154;SDS011;3619;53.784;10.440;2023-02-12T08:54:10;13.53;;;13.03;;
7154;SDS011;3619;53.784;10.440;2023-02-12T08:56:38;12.63;;;12.13;;
7154;SDS011;3619;53.784;10.440;2023-02-12T08:59:06;15.50;;;14.90;;
7154;SDS011;3619;53.784;10.440;2023-02-12T09:01:35;15.40;;;14.80;;
7154;SDS011;3619;53.784;10.440;2023-02-12T09:04:05;14.83;;;14.27;;
7154;SDS011;3619;53.784;10.440;2023-02-12T09:06:35;13.67;;;13.17;;
7154;SDS011;3619;53.784;10.440;2023-02-12T09:09:02;13.77;;;13.27;;
7154;SDS011;3619;53.784;10.440;2023-02-12T09:11:28;13.30;;;12.80;;
7154;SDS011;3619;53.784;10.440;2023-02-12T09:13:59;14.53;;;14.03;;
7154;SDS011;3619;53.784;10.440;2023-02-12T09:16:28;14.03;;;13.53;;
7154;SDS011;3619;53.784;10.440;2023-02-12T09:18:56;13.90;;;13.40;;
7154;SDS011;3619;53.784;10.440;2023-02-12T09:21:23;15.73;;;15.13;;
7154;SDS011;3619;53.784;10.440;2023-02-12T09:23:55;17.43;;;16.73;;
7154;SDS011;3619;53.784;10.440;2023-02-12T09:26:23;16.60;;;16.00;;
7154;SDS011;3619;53.784;10.440;2023-02-12T09:28:51;18.57;;;17.87;;
7154;SDS011;3619;53.784;10.440;2023-02-12T09:31:21;18.63;;;17.93;;
7154;SDS011;3619;53.784;10.440;2023-02-12T09:33:50;17.73;;;17.03;;
7154;SDS011;3619;53.784;10.440;2023-02-12T09:36:18;19.50;;;18.80;;
7154;SDS011;3619;53.784;10.440;2023-02-12T09:38:45;17.13;;;16.53;;
7154;SDS011;3619;53.784;10.440;2023-02-12T09:41:21;21.10;;;20.30;;
7154;SDS011;3619;53.784;10.440;2023-02-12T09:44:10;22.10;;;21.30;;
7154;SDS011;3619;53.784;10.440;2023-02-12T09:46:46;21.00;;;20.20;;
7154;SDS011;3619;53.784;10.440;2023-02-12T09:49:17;21.90;;;21.10;;
7154;SDS011;3619;53.784;10.440;2023-02-12T09:51:51;21.73;;;20.93;;
7154;SDS011;3619;53.784;10.440;2023-02-12T09:54:22;23.90;;;23.00;;
7154;SDS011;3619;53.784;10.440;2023-02-12T09:56:55;23.03;;;22.13;;
7154;SDS011;3619;53.784;10.440;2023-02-12T09:59:28;25.00;;;24.03;;
7154;SDS011;3619;53.784;10.440;2023-02-12T10:01:58;24.67;;;23.77;;
7154;SDS011;3619;53.784;10.440;2023-02-12T10:04:26;24.03;;;23.13;;
7154;SDS011;3619;53.784;10.440;2023-02-12T10:06:55;24.07;;;23.17;;
7154;SDS011;3619;53.784;10.440;2023-02-12T10:09:32;25.43;;;24.43;;
7154;SDS011;3619;53.784;10.440;2023-02-12T10:12:11;29.83;;;28.73;;
7154;SDS011;3619;53.784;10.440;2023-02-12T10:14:52;30.50;;;29.30;;
7154;SDS011;3619;53.784;10.440;2023-02-12T10:17:39;30.67;;;29.47;;
7154;SDS011;3619;53.784;10.440;2023-02-12T10:23:10;33.63;;;32.33;;
7154;SDS011;3619;53.784;10.440;2023-02-12T10:25:57;30.17;;;29.03;;
7154;SDS011;3619;53.784;10.440;2023-02-12T10:28:32;30.83;;;29.63;;
7154;SDS011;3619;53.784;10.440;2023-02-12T10:31:04;26.73;;;25.73;;
7154;SDS011;3619;53.784;10.440;2023-02-12T10:33:34;26.47;;;25.47;;
7154;SDS011;3619;53.784;10.440;2023-02-12T10:36:06;28.63;;;27.53;;
7154;SDS011;3619;53.784;10.440;2023-02-12T10:38:46;25.50;;;24.50;;
7154;SDS011;3619;53.784;10.440;2023-02-12T10:41:18;26.43;;;25.43;;
7154;SDS011;3619;53.784;10.440;2023-02-12T10:43:48;32.27;;;30.20;;
7154;SDS011;3619;53.784;10.440;2023-02-12T10:46:17;27.23;;;26.23;;
7154;SDS011;3619;53.784;10.440;2023-02-12T10:48:52;25.70;;;24.70;;
7154;SDS011;3619;53.784;10.440;2023-02-12T10:51:35;26.60;;;25.60;;
7154;SDS011;3619;53.784;10.440;2023-02-12T10:54:30;25.77;;;24.77;;
7154;SDS011;3619;53.784;10.440;2023-02-12T10:57:16;28.97;;;27.87;;
7154;SDS011;3619;53.784;10.440;2023-02-12T10:59:56;29.60;;;28.50;;
7154;SDS011;3619;53.784;10.440;2023-02-12T11:02:41;28.27;;;27.17;;
7154;SDS011;3619;53.784;10.440;2023-02-12T11:05:45;28.27;;;27.17;;
7154;SDS011;3619;53.784;10.440;2023-02-12T11:08:30;26.50;;;25.50;;
7154;SDS011;3619;53.784;10.440;2023-02-12T11:11:08;28.00;;;26.93;;
7154;SDS011;3619;53.784;10.440;2023-02-12T11:13:55;27.10;;;26.10;;
7154;SDS011;3619;53.784;10.440;2023-02-12T11:16:28;28.87;;;27.77;;
7154;SDS011;3619;53.784;10.440;2023-02-12T11:19:17;28.03;;;26.93;;
7154;SDS011;3619;53.784;10.440;2023-02-12T11:21:46;29.30;;;28.20;;
7154;SDS011;3619;53.784;10.440;2023-02-12T11:24:27;29.10;;;28.00;;
7154;SDS011;3619;53.784;10.440;2023-02-12T11:27:19;28.83;;;27.73;;
7154;SDS011;3619;53.784;10.440;2023-02-12T11:32:53;27.00;;;26.00;;
7154;SDS011;3619;53.784;10.440;2023-02-12T11:35:26;28.03;;;26.93;;
7154;SDS011;3619;53.784;10.440;2023-02-12T11:38:05;26.60;;;25.60;;
7154;SDS011;3619;53.784;10.440;2023-02-12T11:40:44;29.10;;;28.00;;
7154;SDS011;3619;53.784;10.440;2023-02-12T11:43:19;31.30;;;30.10;;
7154;SDS011;3619;53.784;10.440;2023-02-12T11:46:07;30.43;;;29.27;;
7154;SDS011;3619;53.784;10.440;2023-02-12T11:49:03;34.80;;;33.50;;
7154;SDS011;3619;53.784;10.440;2023-02-12T11:51:33;34.43;;;33.13;;
7154;SDS011;3619;53.784;10.440;2023-02-12T11:54:03;32.20;;;31.00;;
7154;SDS011;3619;53.784;10.440;2023-02-12T11:56:41;32.30;;;31.10;;
7154;SDS011;3619;53.784;10.440;2023-02-12T11:59:31;31.57;;;30.37;;
7154;SDS011;3619;53.784;10.440;2023-02-12T12:02:04;29.80;;;28.70;;
7154;SDS011;3619;53.784;10.440;2023-02-12T12:07:49;29.87;;;28.77;;
7154;SDS011;3619;53.784;10.440;2023-02-12T12:10:24;30.93;;;29.77;;
7154;SDS011;3619;53.784;10.440;2023-02-12T12:13:00;27.40;;;26.40;;
7154;SDS011;3619;53.784;10.440;2023-02-12T12:15:41;27.73;;;26.70;;
7154;SDS011;3619;53.784;10.440;2023-02-12T12:18:49;30.57;;;29.40;;
7154;SDS011;3619;53.784;10.440;2023-02-12T12:21:56;28.13;;;27.07;;
7154;SDS011;3619;53.784;10.440;2023-02-12T12:24:56;27.43;;;26.43;;
7154;SDS011;3619;53.784;10.440;2023-02-12T12:27:35;30.67;;;29.47;;
7154;SDS011;3619;53.784;10.440;2023-02-12T12:30:42;28.87;;;27.77;;
7154;SDS011;3619;53.784;10.440;2023-02-12T12:33:39;30.57;;;29.37;;
7154;SDS011;3619;53.784;10.440;2023-02-12T12:39:54;27.90;;;26.80;;
7154;SDS011;3619;53.784;10.440;2023-02-12T12:42:57;28.00;;;26.93;;
7154;SDS011;3619;53.784;10.440;2023-02-12T12:48:37;29.60;;;28.50;;
7154;SDS011;3619;53.784;10.440;2023-02-12T12:51:50;29.93;;;28.83;;
7154;SDS011;3619;53.784;10.440;2023-02-12T12:58:28;28.17;;;27.07;;
7154;SDS011;3619;53.784;10.440;2023-02-12T13:01:38;31.67;;;30.47;;
7154;SDS011;3619;53.784;10.440;2023-02-12T13:04:31;27.23;;;26.23;;
7154;SDS011;3619;53.784;10.440;2023-02-12T13:07:26;29.77;;;28.67;;
7154;SDS011;3619;53.784;10.440;2023-02-12T13:10:21;28.23;;;27.13;;
7154;SDS011;3619;53.784;10.440;2023-02-12T13:13:04;28.60;;;27.50;;
7154;SDS011;3619;53.784;10.440;2023-02-12T13:15:49;29.87;;;28.77;;
7154;SDS011;3619;53.784;10.440;2023-02-12T13:18:57;34.50;;;33.20;;
7154;SDS011;3619;53.784;10.440;2023-02-12T13:22:01;32.33;;;31.13;;
7154;SDS011;3619;53.784;10.440;2023-02-12T13:24:49;35.10;;;33.80;;
7154;SDS011;3619;53.784;10.440;2023-02-12T13:27:31;29.80;;;28.70;;
7154;SDS011;3619;53.784;10.440;2023-02-12T13:30:16;33.53;;;32.23;;
7154;SDS011;3619;53.784;10.440;2023-02-12T13:32:58;35.47;;;34.10;;
7154;SDS011;3619;53.784;10.440;2023-02-12T13:35:37;36.20;;;34.80;;
7154;SDS011;3619;53.784;10.440;2023-02-12T13:38:21;35.27;;;33.97;;
7154;SDS011;3619;53.784;10.440;2023-02-12T13:40:57;33.60;;;32.30;;
7154;SDS011;3619;53.784;10.440;2023-02-12T13:46:34;29.97;;;28.87;;
7154;SDS011;3619;53.784;10.440;2023-02-12T13:49:22;30.40;;;29.23;;
7154;SDS011;3619;53.784;10.440;2023-02-12T13:51:58;32.33;;;31.13;;
7154;SDS011;3619;53.784;10.440;2023-02-12T13:54:36;31.17;;;29.97;;
7154;SDS011;3619;53.784;10.440;2023-02-12T13:57:22;32.00;;;30.80;;
7154;SDS011;3619;53.784;10.440;2023-02-12T13:59:50;32.13;;;30.93;;
7154;SDS011;3619;53.784;10.440;2023-02-12T14:02:26;31.17;;;29.97;;
7154;SDS011;3619;53.784;10.440;2023-02-12T14:07:56;33.40;;;32.10;;
7154;SDS011;3619;53.784;10.440;2023-02-12T14:10:46;37.00;;;35.60;;
7154;SDS011;3619;53.784;10.440;2023-02-12T14:13:57;35.23;;;33.90;;
7154;SDS011;3619;53.784;10.440;2023-02-12T14:25:40;37.60;;;36.20;;
7154;SDS011;3619;53.784;10.440;2023-02-12T14:37:13;42.10;;;40.50;;
7154;SDS011;3619;53.784;10.440;2023-02-12T14:43:24;48.23;;;46.37;;
7154;SDS011;3619;53.784;10.440;2023-02-12T14:45:58;43.03;;;41.37;;
7154;SDS011;3619;53.784;10.440;2023-02-12T14:49:15;42.97;;;41.33;;
7154;SDS011;3619;53.784;10.440;2023-02-12T14:51:50;47.03;;;45.23;;
7154;SDS011;3619;53.784;10.440;2023-02-12T14:54:33;43.37;;;41.70;;
7154;SDS011;3619;53.784;10.440;2023-02-12T14:57:08;44.37;;;42.67;;
7154;SDS011;3619;53.784;10.440;2023-02-12T15:00:03;42.03;;;40.43;;
7154;SDS011;3619;53.784;10.440;2023-02-12T15:02:53;47.03;;;45.23;;
7154;SDS011;3619;53.784;10.440;2023-02-12T15:05:25;42.37;;;40.77;;
7154;SDS011;3619;53.784;10.440;2023-02-12T15:07:56;43.63;;;41.93;;
7154;SDS011;3619;53.784;10.440;2023-02-12T15:10:38;40.10;;;38.57;;
7154;SDS011;3619;53.784;10.440;2023-02-12T15:13:14;44.70;;;43.00;;
7154;SDS011;3619;53.784;10.440;2023-02-12T15:15:51;42.53;;;40.93;;
7154;SDS011;3619;53.784;10.440;2023-02-12T15:18:21;45.67;;;43.90;;
7154;SDS011;3619;53.784;10.440;2023-02-12T15:20:58;43.80;;;42.10;;
7154;SDS011;3619;53.784;10.440;2023-02-12T15:23:32;47.70;;;45.87;;
7154;SDS011;3619;53.784;10.440;2023-02-12T15:26:04;49.90;;;48.00;;
7154;SDS011;3619;53.784;10.440;2023-02-12T15:28:41;50.23;;;48.33;;
7154;SDS011;3619;53.784;10.440;2023-02-12T15:31:16;50.47;;;48.50;;
7154;SDS011;3619;53.784;10.440;2023-02-12T15:33:45;42.97;;;41.37;;
7154;SDS011;3619;53.784;10.440;2023-02-12T15:36:15;44.50;;;42.80;;
7154;SDS011;3619;53.784;10.440;2023-02-12T15:38:47;44.63;;;42.93;;
7154;SDS011;3619;53.784;10.440;2023-02-12T15:41:24;43.53;;;41.83;;
7154;SDS011;3619;53.784;10.440;2023-02-12T15:44:02;46.67;;;44.87;;
7154;SDS011;3619;53.784;10.440;2023-02-12T15:46:32;45.33;;;43.60;;
7154;SDS011;3619;53.784;10.440;2023-02-12T15:49:17;48.07;;;46.20;;
7154;SDS011;3619;53.784;10.440;2023-02-12T15:51:46;53.60;;;51.50;;
7154;SDS011;3619;53.784;10.440;2023-02-12T15:54:14;47.50;;;45.70;;
7154;SDS011;3619;53.784;10.440;2023-02-12T15:59:19;51.60;;;49.60;;
7154;SDS011;3619;53.784;10.440;2023-02-12T16:01:58;50.33;;;48.43;;
7154;SDS011;3619;53.784;10.440;2023-02-12T16:04:29;56.90;;;54.70;;
7154;SDS011;3619;53.784;10.440;2023-02-12T16:06:58;50.83;;;48.87;;
7154;SDS011;3619;53.784;10.440;2023-02-12T16:09:27;51.07;;;49.07;;
7154;SDS011;3619;53.784;10.440;2023-02-12T16:11:58;55.53;;;53.43;;
7154;SDS011;3619;53.784;10.440;2023-02-12T16:14:30;56.47;;;54.27;;